sensor_id;sensor_type;location;lat;lon;timestamp;temperature;humidity
79439;DHT22;68889;48.232;10.110;2023-08-21T00:00:50;21.80;93.80
79439;DHT22;68889;48.232;10.110;2023-08-21T00:03:16;21.80;92.80
79439;DHT22;68889;48.232;10.110;2023-08-21T00:05:41;21.80;93.70
79439;DHT22;68889;48.232;10.110;2023-08-21T00:08:07;21.80;91.80
79439;DHT22;68889;48.232;10.110;2023-08-21T00:10:32;21.80;92.50
79439;DHT22;68889;48.232;10.110;2023-08-21T00:12:58;21.70;94.00
79439;DHT22;68889;48.232;10.110;2023-08-21T00:15:24;21.70;94.00
79439;DHT22;68889;48.232;10.110;2023-08-21T00:17:49;21.70;94.80
79439;DHT22;68889;48.232;10.110;2023-08-21T00:20:15;21.60;94.00
79439;DHT22;68889;48.232;10.110;2023-08-21T00:22:40;21.60;93.10
79439;DHT22;68889;48.232;10.110;2023-08-21T00:25:06;21.60;93.00
79439;DHT22;68889;48.232;10.110;2023-08-21T00:27:32;21.60;93.40
79439;DHT22;68889;48.232;10.110;2023-08-21T00:30:00;21.60;93.10
79439;DHT22;68889;48.232;10.110;2023-08-21T00:32:25;21.60;93.60
79439;DHT22;68889;48.232;10.110;2023-08-21T00:34:51;21.60;94.20
79439;DHT22;68889;48.232;10.110;2023-08-21T00:37:16;21.60;94.40
79439;DHT22;68889;48.232;10.110;2023-08-21T00:39:42;21.50;94.70
79439;DHT22;68889;48.232;10.110;2023-08-21T00:42:07;21.40;95.10
79439;DHT22;68889;48.232;10.110;2023-08-21T00:44:33;21.40;95.30
79439;DHT22;68889;48.232;10.110;2023-08-21T00:46:59;21.30;94.40
79439;DHT22;68889;48.232;10.110;2023-08-21T00:49:25;21.40;93.50
79439;DHT22;68889;48.232;10.110;2023-08-21T00:51:51;21.30;94.00
79439;DHT22;68889;48.232;10.110;2023-08-21T00:54:17;21.30;94.90
79439;DHT22;68889;48.232;10.110;2023-08-21T00:56:42;21.30;94.60
79439;DHT22;68889;48.232;10.110;2023-08-21T00:59:08;21.30;96.00
79439;DHT22;68889;48.232;10.110;2023-08-21T01:01:35;21.20;95.70
79439;DHT22;68889;48.232;10.110;2023-08-21T01:04:02;21.10;95.90
79439;DHT22;68889;48.232;10.110;2023-08-21T01:06:28;21.10;95.70
79439;DHT22;68889;48.232;10.110;2023-08-21T01:09:02;21.10;94.60
79439;DHT22;68889;48.232;10.110;2023-08-21T01:11:42;21.10;95.40
79439;DHT22;68889;48.232;10.110;2023-08-21T01:14:33;21.10;95.10
79439;DHT22;68889;48.232;10.110;2023-08-21T01:17:03;21.10;94.10
79439;DHT22;68889;48.232;10.110;2023-08-21T01:19:44;21.00;95.00
79439;DHT22;68889;48.232;10.110;2023-08-21T01:22:11;21.00;94.70
79439;DHT22;68889;48.232;10.110;2023-08-21T01:24:37;20.90;94.90
79439;DHT22;68889;48.232;10.110;2023-08-21T01:27:03;20.90;94.50
79439;DHT22;68889;48.232;10.110;2023-08-21T01:29:28;20.90;95.30
79439;DHT22;68889;48.232;10.110;2023-08-21T01:34:30;20.80;95.60
79439;DHT22;68889;48.232;10.110;2023-08-21T01:36:59;20.80;96.00
79439;DHT22;68889;48.232;10.110;2023-08-21T01:39:25;20.80;95.70
79439;DHT22;68889;48.232;10.110;2023-08-21T01:41:51;20.80;96.30
79439;DHT22;68889;48.232;10.110;2023-08-21T01:44:16;20.70;95.40
79439;DHT22;68889;48.232;10.110;2023-08-21T01:46:42;20.70;95.20
79439;DHT22;68889;48.232;10.110;2023-08-21T01:49:07;20.70;96.70
79439;DHT22;68889;48.232;10.110;2023-08-21T01:51:33;20.70;95.70
79439;DHT22;68889;48.232;10.110;2023-08-21T01:53:58;20.60;95.90
79439;DHT22;68889;48.232;10.110;2023-08-21T01:56:24;20.60;95.30
79439;DHT22;68889;48.232;10.110;2023-08-21T01:58:49;20.60;95.90
79439;DHT22;68889;48.232;10.110;2023-08-21T02:01:15;20.60;96.10
79439;DHT22;68889;48.232;10.110;2023-08-21T02:03:40;20.60;95.10
79439;DHT22;68889;48.232;10.110;2023-08-21T02:06:07;20.50;95.70
79439;DHT22;68889;48.232;10.110;2023-08-21T02:08:32;20.40;96.70
79439;DHT22;68889;48.232;10.110;2023-08-21T02:10:58;20.40;95.70
79439;DHT22;68889;48.232;10.110;2023-08-21T02:13:23;20.40;96.00
79439;DHT22;68889;48.232;10.110;2023-08-21T02:15:49;20.40;94.90
79439;DHT22;68889;48.232;10.110;2023-08-21T02:18:15;20.40;94.70
79439;DHT22;68889;48.232;10.110;2023-08-21T02:20:40;20.40;96.10
79439;DHT22;68889;48.232;10.110;2023-08-21T02:23:06;20.40;95.70
79439;DHT22;68889;48.232;10.110;2023-08-21T02:25:32;20.40;95.90
79439;DHT22;68889;48.232;10.110;2023-08-21T02:27:58;20.30;96.50
79439;DHT22;68889;48.232;10.110;2023-08-21T02:30:23;20.30;96.50
79439;DHT22;68889;48.232;10.110;2023-08-21T02:32:54;20.20;96.50
79439;DHT22;68889;48.232;10.110;2023-08-21T02:35:22;20.20;96.30
79439;DHT22;68889;48.232;10.110;2023-08-21T02:37:48;20.20;96.30
79439;DHT22;68889;48.232;10.110;2023-08-21T02:40:14;20.20;96.50
79439;DHT22;68889;48.232;10.110;2023-08-21T02:42:39;20.20;96.30
79439;DHT22;68889;48.232;10.110;2023-08-21T02:45:05;20.20;96.50
79439;DHT22;68889;48.232;10.110;2023-08-21T02:47:36;20.10;97.20
79439;DHT22;68889;48.232;10.110;2023-08-21T02:50:04;20.10;97.50
79439;DHT22;68889;48.232;10.110;2023-08-21T02:52:29;20.10;97.10
79439;DHT22;68889;48.232;10.110;2023-08-21T02:54:55;20.10;97.10
79439;DHT22;68889;48.232;10.110;2023-08-21T02:57:20;20.00;97.00
79439;DHT22;68889;48.232;10.110;2023-08-21T02:59:46;20.00;97.00
79439;DHT22;68889;48.232;10.110;2023-08-21T03:02:11;20.00;97.40
79439;DHT22;68889;48.232;10.110;2023-08-21T03:04:37;20.00;97.10
79439;DHT22;68889;48.232;10.110;2023-08-21T03:07:02;19.90;97.40
79439;DHT22;68889;48.232;10.110;2023-08-21T03:09:28;19.90;96.90
79439;DHT22;68889;48.232;10.110;2023-08-21T03:11:53;19.90;97.40
79439;DHT22;68889;48.232;10.110;2023-08-21T03:14:19;19.90;96.70
79439;DHT22;68889;48.232;10.110;2023-08-21T03:16:45;19.90;96.70
79439;DHT22;68889;48.232;10.110;2023-08-21T03:19:10;19.90;97.10
79439;DHT22;68889;48.232;10.110;2023-08-21T03:21:36;19.80;95.90
79439;DHT22;68889;48.232;10.110;2023-08-21T03:24:01;19.80;95.70
79439;DHT22;68889;48.232;10.110;2023-08-21T03:26:27;19.80;96.10
79439;DHT22;68889;48.232;10.110;2023-08-21T03:28:52;19.80;96.10
79439;DHT22;68889;48.232;10.110;2023-08-21T03:31:18;19.80;95.90
79439;DHT22;68889;48.232;10.110;2023-08-21T03:33:43;19.80;97.10
79439;DHT22;68889;48.232;10.110;2023-08-21T03:36:09;19.70;97.80
79439;DHT22;68889;48.232;10.110;2023-08-21T03:38:34;19.60;97.90
79439;DHT22;68889;48.232;10.110;2023-08-21T03:41:00;19.70;97.20
79439;DHT22;68889;48.232;10.110;2023-08-21T03:43:26;19.70;97.50
79439;DHT22;68889;48.232;10.110;2023-08-21T03:45:51;19.70;97.40
79439;DHT22;68889;48.232;10.110;2023-08-21T03:48:17;19.70;95.70
79439;DHT22;68889;48.232;10.110;2023-08-21T03:50:42;19.70;96.10
79439;DHT22;68889;48.232;10.110;2023-08-21T03:53:08;19.70;97.60
79439;DHT22;68889;48.232;10.110;2023-08-21T03:55:33;19.60;96.60
79439;DHT22;68889;48.232;10.110;2023-08-21T03:57:59;19.60;97.60
79439;DHT22;68889;48.232;10.110;2023-08-21T04:00:25;19.60;97.00
79439;DHT22;68889;48.232;10.110;2023-08-21T04:02:50;19.60;96.60
79439;DHT22;68889;48.232;10.110;2023-08-21T04:05:16;19.50;97.70
79439;DHT22;68889;48.232;10.110;2023-08-21T04:07:41;19.50;98.00
79439;DHT22;68889;48.232;10.110;2023-08-21T04:10:07;19.50;97.60
79439;DHT22;68889;48.232;10.110;2023-08-21T04:12:32;19.50;97.20
79439;DHT22;68889;48.232;10.110;2023-08-21T04:14:58;19.50;97.60
79439;DHT22;68889;48.232;10.110;2023-08-21T04:17:24;19.50;97.60
79439;DHT22;68889;48.232;10.110;2023-08-21T04:19:50;19.50;97.10
79439;DHT22;68889;48.232;10.110;2023-08-21T04:22:15;19.50;97.70
79439;DHT22;68889;48.232;10.110;2023-08-21T04:24:41;19.40;98.40
79439;DHT22;68889;48.232;10.110;2023-08-21T04:27:07;19.40;98.30
79439;DHT22;68889;48.232;10.110;2023-08-21T04:29:32;19.40;98.40
79439;DHT22;68889;48.232;10.110;2023-08-21T04:31:58;19.30;98.70
79439;DHT22;68889;48.232;10.110;2023-08-21T04:34:23;19.40;98.20
79439;DHT22;68889;48.232;10.110;2023-08-21T04:36:49;19.40;97.90
79439;DHT22;68889;48.232;10.110;2023-08-21T04:39:14;19.40;97.80
79439;DHT22;68889;48.232;10.110;2023-08-21T04:41:41;19.50;97.70
79439;DHT22;68889;48.232;10.110;2023-08-21T04:44:07;19.50;97.40
79439;DHT22;68889;48.232;10.110;2023-08-21T04:46:32;19.50;97.60
79439;DHT22;68889;48.232;10.110;2023-08-21T04:48:58;19.50;98.00
79439;DHT22;68889;48.232;10.110;2023-08-21T04:51:24;19.60;97.20
79439;DHT22;68889;48.232;10.110;2023-08-21T04:53:49;19.60;97.00
79439;DHT22;68889;48.232;10.110;2023-08-21T04:56:15;19.60;97.00
79439;DHT22;68889;48.232;10.110;2023-08-21T04:58:40;19.60;96.30
79439;DHT22;68889;48.232;10.110;2023-08-21T05:01:06;19.60;97.00
79439;DHT22;68889;48.232;10.110;2023-08-21T05:03:31;19.60;97.10
79439;DHT22;68889;48.232;10.110;2023-08-21T05:05:57;19.60;96.60
79439;DHT22;68889;48.232;10.110;2023-08-21T05:08:24;19.70;96.70
79439;DHT22;68889;48.232;10.110;2023-08-21T05:10:56;19.70;96.30
79439;DHT22;68889;48.232;10.110;2023-08-21T05:13:22;19.70;96.70
79439;DHT22;68889;48.232;10.110;2023-08-21T05:15:54;19.70;96.70
79439;DHT22;68889;48.232;10.110;2023-08-21T05:18:21;19.70;96.70
79439;DHT22;68889;48.232;10.110;2023-08-21T05:20:48;19.80;96.30
79439;DHT22;68889;48.232;10.110;2023-08-21T05:23:14;19.80;96.90
79439;DHT22;68889;48.232;10.110;2023-08-21T05:25:39;19.80;96.30
79439;DHT22;68889;48.232;10.110;2023-08-21T05:28:06;19.90;96.60
79439;DHT22;68889;48.232;10.110;2023-08-21T05:30:31;19.90;96.10
79439;DHT22;68889;48.232;10.110;2023-08-21T05:32:57;19.90;96.90
79439;DHT22;68889;48.232;10.110;2023-08-21T05:35:22;19.90;97.00
79439;DHT22;68889;48.232;10.110;2023-08-21T05:37:48;19.90;97.10
79439;DHT22;68889;48.232;10.110;2023-08-21T05:40:14;19.90;97.10
79439;DHT22;68889;48.232;10.110;2023-08-21T05:42:39;19.90;97.00
79439;DHT22;68889;48.232;10.110;2023-08-21T05:45:05;20.00;96.60
79439;DHT22;68889;48.232;10.110;2023-08-21T05:47:31;20.10;96.30
79439;DHT22;68889;48.232;10.110;2023-08-21T05:49:56;20.10;96.10
79439;DHT22;68889;48.232;10.110;2023-08-21T05:52:22;20.30;95.70
79439;DHT22;68889;48.232;10.110;2023-08-21T05:54:48;20.30;95.70
79439;DHT22;68889;48.232;10.110;2023-08-21T05:57:14;20.40;95.70
79439;DHT22;68889;48.232;10.110;2023-08-21T05:59:44;20.60;95.30
79439;DHT22;68889;48.232;10.110;2023-08-21T06:02:11;20.80;95.50
79439;DHT22;68889;48.232;10.110;2023-08-21T06:04:39;20.90;95.30
79439;DHT22;68889;48.232;10.110;2023-08-21T06:07:05;21.00;95.20
79439;DHT22;68889;48.232;10.110;2023-08-21T06:09:30;21.10;95.00
79439;DHT22;68889;48.232;10.110;2023-08-21T06:12:05;21.30;95.20
79439;DHT22;68889;48.232;10.110;2023-08-21T06:14:30;21.40;94.30
79439;DHT22;68889;48.232;10.110;2023-08-21T06:17:00;21.50;94.50
79439;DHT22;68889;48.232;10.110;2023-08-21T06:19:27;21.70;94.00
79439;DHT22;68889;48.232;10.110;2023-08-21T06:21:52;21.80;94.10
79439;DHT22;68889;48.232;10.110;2023-08-21T06:24:18;22.00;93.50
79439;DHT22;68889;48.232;10.110;2023-08-21T06:26:43;22.00;92.30
79439;DHT22;68889;48.232;10.110;2023-08-21T06:29:09;22.10;92.80
79439;DHT22;68889;48.232;10.110;2023-08-21T06:31:34;22.30;91.90
79439;DHT22;68889;48.232;10.110;2023-08-21T06:34:00;22.50;91.70
79439;DHT22;68889;48.232;10.110;2023-08-21T06:36:26;22.60;90.90
79439;DHT22;68889;48.232;10.110;2023-08-21T06:38:51;22.80;91.70
79439;DHT22;68889;48.232;10.110;2023-08-21T06:41:17;22.90;91.80
79439;DHT22;68889;48.232;10.110;2023-08-21T06:43:42;23.00;91.40
79439;DHT22;68889;48.232;10.110;2023-08-21T06:46:08;23.20;91.00
79439;DHT22;68889;48.232;10.110;2023-08-21T06:48:38;23.30;90.40
79439;DHT22;68889;48.232;10.110;2023-08-21T06:51:07;23.50;90.20
79439;DHT22;68889;48.232;10.110;2023-08-21T06:53:33;23.60;90.30
79439;DHT22;68889;48.232;10.110;2023-08-21T06:55:58;23.70;90.20
79439;DHT22;68889;48.232;10.110;2023-08-21T06:58:24;23.80;89.90
79439;DHT22;68889;48.232;10.110;2023-08-21T07:00:49;23.90;89.50
79439;DHT22;68889;48.232;10.110;2023-08-21T07:03:15;24.00;89.80
79439;DHT22;68889;48.232;10.110;2023-08-21T07:05:40;24.10;89.10
79439;DHT22;68889;48.232;10.110;2023-08-21T07:08:06;24.30;88.80
79439;DHT22;68889;48.232;10.110;2023-08-21T07:10:38;24.40;89.20
79439;DHT22;68889;48.232;10.110;2023-08-21T07:13:03;24.40;89.00
79439;DHT22;68889;48.232;10.110;2023-08-21T07:15:29;24.40;89.10
79439;DHT22;68889;48.232;10.110;2023-08-21T07:17:55;24.50;89.10
79439;DHT22;68889;48.232;10.110;2023-08-21T07:20:21;24.70;88.70
79439;DHT22;68889;48.232;10.110;2023-08-21T07:22:47;24.80;87.50
79439;DHT22;68889;48.232;10.110;2023-08-21T07:25:13;24.90;89.00
79439;DHT22;68889;48.232;10.110;2023-08-21T07:27:38;25.00;87.60
79439;DHT22;68889;48.232;10.110;2023-08-21T07:30:05;25.10;87.70
79439;DHT22;68889;48.232;10.110;2023-08-21T07:32:31;25.20;86.90
79439;DHT22;68889;48.232;10.110;2023-08-21T07:34:57;25.40;86.40
79439;DHT22;68889;48.232;10.110;2023-08-21T07:37:22;25.60;84.10
79439;DHT22;68889;48.232;10.110;2023-08-21T07:39:48;25.70;84.50
79439;DHT22;68889;48.232;10.110;2023-08-21T07:42:13;25.80;84.40
79439;DHT22;68889;48.232;10.110;2023-08-21T07:44:39;26.00;85.40
79439;DHT22;68889;48.232;10.110;2023-08-21T07:47:05;26.20;84.20
79439;DHT22;68889;48.232;10.110;2023-08-21T07:49:32;26.50;83.70
79439;DHT22;68889;48.232;10.110;2023-08-21T07:51:57;26.70;82.50
79439;DHT22;68889;48.232;10.110;2023-08-21T07:54:23;26.80;80.80
79439;DHT22;68889;48.232;10.110;2023-08-21T07:56:50;26.90;80.40
79439;DHT22;68889;48.232;10.110;2023-08-21T07:59:16;27.10;81.10
79439;DHT22;68889;48.232;10.110;2023-08-21T08:01:41;27.30;80.10
79439;DHT22;68889;48.232;10.110;2023-08-21T08:04:08;27.30;80.00
79439;DHT22;68889;48.232;10.110;2023-08-21T08:06:33;27.40;79.80
79439;DHT22;68889;48.232;10.110;2023-08-21T08:08:59;27.50;79.30
79439;DHT22;68889;48.232;10.110;2023-08-21T08:11:25;27.70;79.80
79439;DHT22;68889;48.232;10.110;2023-08-21T08:13:50;27.90;78.70
79439;DHT22;68889;48.232;10.110;2023-08-21T08:16:16;28.10;77.70
79439;DHT22;68889;48.232;10.110;2023-08-21T08:18:42;28.20;75.90
79439;DHT22;68889;48.232;10.110;2023-08-21T08:21:08;28.20;76.00
79439;DHT22;68889;48.232;10.110;2023-08-21T08:23:34;28.30;76.80
79439;DHT22;68889;48.232;10.110;2023-08-21T08:26:00;28.50;76.70
79439;DHT22;68889;48.232;10.110;2023-08-21T08:28:25;28.60;76.90
79439;DHT22;68889;48.232;10.110;2023-08-21T08:30:51;28.70;76.70
79439;DHT22;68889;48.232;10.110;2023-08-21T08:33:17;28.80;74.40
79439;DHT22;68889;48.232;10.110;2023-08-21T08:35:43;28.90;76.20
79439;DHT22;68889;48.232;10.110;2023-08-21T08:38:08;29.00;74.90
79439;DHT22;68889;48.232;10.110;2023-08-21T08:40:37;29.20;74.50
79439;DHT22;68889;48.232;10.110;2023-08-21T08:43:08;29.30;72.90
79439;DHT22;68889;48.232;10.110;2023-08-21T08:45:34;29.40;74.10
79439;DHT22;68889;48.232;10.110;2023-08-21T08:48:02;29.60;74.50
79439;DHT22;68889;48.232;10.110;2023-08-21T08:50:32;29.70;71.90
79439;DHT22;68889;48.232;10.110;2023-08-21T08:52:58;29.80;72.40
79439;DHT22;68889;48.232;10.110;2023-08-21T08:55:25;29.90;72.10
79439;DHT22;68889;48.232;10.110;2023-08-21T08:57:55;30.10;72.60
79439;DHT22;68889;48.232;10.110;2023-08-21T09:00:21;30.20;72.90
79439;DHT22;68889;48.232;10.110;2023-08-21T09:02:47;30.40;72.30
79439;DHT22;68889;48.232;10.110;2023-08-21T09:05:13;30.70;71.20
79439;DHT22;68889;48.232;10.110;2023-08-21T09:07:39;30.70;69.20
79439;DHT22;68889;48.232;10.110;2023-08-21T09:10:13;30.80;67.70
79439;DHT22;68889;48.232;10.110;2023-08-21T09:12:39;30.90;68.40
79439;DHT22;68889;48.232;10.110;2023-08-21T09:15:08;30.90;70.20
79439;DHT22;68889;48.232;10.110;2023-08-21T09:17:34;31.00;69.50
79439;DHT22;68889;48.232;10.110;2023-08-21T09:20:07;31.10;67.30
79439;DHT22;68889;48.232;10.110;2023-08-21T09:22:35;31.20;67.60
79439;DHT22;68889;48.232;10.110;2023-08-21T09:27:32;31.50;69.20
79439;DHT22;68889;48.232;10.110;2023-08-21T09:29:57;31.60;68.50
79439;DHT22;68889;48.232;10.110;2023-08-21T09:32:23;31.80;68.70
79439;DHT22;68889;48.232;10.110;2023-08-21T09:34:49;32.00;67.30
79439;DHT22;68889;48.232;10.110;2023-08-21T09:37:16;32.20;66.60
79439;DHT22;68889;48.232;10.110;2023-08-21T09:39:43;32.30;65.10
79439;DHT22;68889;48.232;10.110;2023-08-21T09:42:09;32.30;66.40
79439;DHT22;68889;48.232;10.110;2023-08-21T09:44:39;32.40;67.20
79439;DHT22;68889;48.232;10.110;2023-08-21T09:47:10;32.50;63.30
79439;DHT22;68889;48.232;10.110;2023-08-21T09:49:37;32.60;62.70
79439;DHT22;68889;48.232;10.110;2023-08-21T09:52:06;32.70;62.20
79439;DHT22;68889;48.232;10.110;2023-08-21T09:54:33;32.80;62.90
79439;DHT22;68889;48.232;10.110;2023-08-21T09:57:03;32.90;63.10
79439;DHT22;68889;48.232;10.110;2023-08-21T09:59:32;32.90;62.20
79439;DHT22;68889;48.232;10.110;2023-08-21T10:02:02;32.80;62.20
79439;DHT22;68889;48.232;10.110;2023-08-21T10:04:31;32.90;63.00
79439;DHT22;68889;48.232;10.110;2023-08-21T10:06:58;32.80;62.30
79439;DHT22;68889;48.232;10.110;2023-08-21T10:09:26;33.10;62.90
79439;DHT22;68889;48.232;10.110;2023-08-21T10:11:53;33.10;64.40
79439;DHT22;68889;48.232;10.110;2023-08-21T10:14:21;33.20;63.40
79439;DHT22;68889;48.232;10.110;2023-08-21T10:16:47;33.30;62.40
79439;DHT22;68889;48.232;10.110;2023-08-21T10:19:14;33.30;62.20
79439;DHT22;68889;48.232;10.110;2023-08-21T10:21:40;33.40;62.00
79439;DHT22;68889;48.232;10.110;2023-08-21T10:24:06;33.70;61.40
79439;DHT22;68889;48.232;10.110;2023-08-21T10:26:38;33.90;59.50
79439;DHT22;68889;48.232;10.110;2023-08-21T10:29:04;34.00;59.40
79439;DHT22;68889;48.232;10.110;2023-08-21T10:31:40;34.20;60.90
79439;DHT22;68889;48.232;10.110;2023-08-21T10:34:09;34.40;58.40
79439;DHT22;68889;48.232;10.110;2023-08-21T10:39:24;34.80;60.20
79439;DHT22;68889;48.232;10.110;2023-08-21T10:42:02;35.10;55.80
79439;DHT22;68889;48.232;10.110;2023-08-21T10:47:32;35.20;56.60
79439;DHT22;68889;48.232;10.110;2023-08-21T10:50:05;35.20;56.10
79439;DHT22;68889;48.232;10.110;2023-08-21T10:52:41;35.20;58.80
79439;DHT22;68889;48.232;10.110;2023-08-21T10:55:09;35.50;57.40
79439;DHT22;68889;48.232;10.110;2023-08-21T10:57:36;35.70;58.70
79439;DHT22;68889;48.232;10.110;2023-08-21T11:00:09;35.80;57.20
79439;DHT22;68889;48.232;10.110;2023-08-21T11:02:38;35.90;56.50
79439;DHT22;68889;48.232;10.110;2023-08-21T11:05:04;36.00;56.20
79439;DHT22;68889;48.232;10.110;2023-08-21T11:07:36;36.20;56.80
79439;DHT22;68889;48.232;10.110;2023-08-21T11:10:02;36.50;56.10
79439;DHT22;68889;48.232;10.110;2023-08-21T11:12:28;36.50;57.00
79439;DHT22;68889;48.232;10.110;2023-08-21T11:14:54;36.70;56.10
79439;DHT22;68889;48.232;10.110;2023-08-21T11:17:20;36.70;57.40
79439;DHT22;68889;48.232;10.110;2023-08-21T11:19:45;36.90;57.50
79439;DHT22;68889;48.232;10.110;2023-08-21T11:22:13;37.00;55.30
79439;DHT22;68889;48.232;10.110;2023-08-21T11:24:46;37.00;53.90
79439;DHT22;68889;48.232;10.110;2023-08-21T11:27:14;37.10;56.10
79439;DHT22;68889;48.232;10.110;2023-08-21T11:29:41;37.20;56.40
79439;DHT22;68889;48.232;10.110;2023-08-21T11:32:14;37.30;55.70
79439;DHT22;68889;48.232;10.110;2023-08-21T11:34:41;37.40;54.20
79439;DHT22;68889;48.232;10.110;2023-08-21T11:37:07;37.50;54.30
79439;DHT22;68889;48.232;10.110;2023-08-21T11:39:44;37.60;54.70
79439;DHT22;68889;48.232;10.110;2023-08-21T11:42:14;37.70;52.60
79439;DHT22;68889;48.232;10.110;2023-08-21T11:44:49;37.80;53.10
79439;DHT22;68889;48.232;10.110;2023-08-21T11:47:16;37.80;53.10
79439;DHT22;68889;48.232;10.110;2023-08-21T11:49:42;37.70;52.90
79439;DHT22;68889;48.232;10.110;2023-08-21T11:52:11;37.80;54.60
79439;DHT22;68889;48.232;10.110;2023-08-21T11:54:38;37.90;54.30
79439;DHT22;68889;48.232;10.110;2023-08-21T11:57:15;38.00;54.20
79439;DHT22;68889;48.232;10.110;2023-08-21T11:59:41;37.90;51.70
79439;DHT22;68889;48.232;10.110;2023-08-21T12:02:13;37.70;51.60
79439;DHT22;68889;48.232;10.110;2023-08-21T12:04:39;37.50;51.80
79439;DHT22;68889;48.232;10.110;2023-08-21T12:07:04;37.30;50.60
79439;DHT22;68889;48.232;10.110;2023-08-21T12:09:30;37.10;50.20
79439;DHT22;68889;48.232;10.110;2023-08-21T12:11:55;37.10;50.80
79439;DHT22;68889;48.232;10.110;2023-08-21T12:14:22;37.00;53.40
79439;DHT22;68889;48.232;10.110;2023-08-21T12:16:48;37.10;52.10
79439;DHT22;68889;48.232;10.110;2023-08-21T12:19:14;37.20;53.10
79439;DHT22;68889;48.232;10.110;2023-08-21T12:21:39;37.40;48.50
79439;DHT22;68889;48.232;10.110;2023-08-21T12:24:05;37.30;50.30
79439;DHT22;68889;48.232;10.110;2023-08-21T12:26:32;37.20;51.70
79439;DHT22;68889;48.232;10.110;2023-08-21T12:28:58;37.20;52.30
79439;DHT22;68889;48.232;10.110;2023-08-21T12:31:24;37.50;52.10
79439;DHT22;68889;48.232;10.110;2023-08-21T12:33:50;37.70;48.20
79439;DHT22;68889;48.232;10.110;2023-08-21T12:36:15;37.60;50.50
79439;DHT22;68889;48.232;10.110;2023-08-21T12:38:41;37.70;51.80
79439;DHT22;68889;48.232;10.110;2023-08-21T12:41:06;37.60;49.00
79439;DHT22;68889;48.232;10.110;2023-08-21T12:43:32;37.80;49.20
79439;DHT22;68889;48.232;10.110;2023-08-21T12:45:58;38.00;48.20
79439;DHT22;68889;48.232;10.110;2023-08-21T12:48:24;38.00;50.50
79439;DHT22;68889;48.232;10.110;2023-08-21T12:50:49;38.10;52.50
79439;DHT22;68889;48.232;10.110;2023-08-21T12:53:15;38.00;51.10
79439;DHT22;68889;48.232;10.110;2023-08-21T12:55:41;37.70;49.60
79439;DHT22;68889;48.232;10.110;2023-08-21T12:58:08;37.60;51.60
79439;DHT22;68889;48.232;10.110;2023-08-21T13:00:33;37.50;50.40
79439;DHT22;68889;48.232;10.110;2023-08-21T13:02:59;37.70;51.50
79439;DHT22;68889;48.232;10.110;2023-08-21T13:05:24;38.00;50.20
79439;DHT22;68889;48.232;10.110;2023-08-21T13:07:51;38.20;50.10
79439;DHT22;68889;48.232;10.110;2023-08-21T13:10:17;38.40;51.30
79439;DHT22;68889;48.232;10.110;2023-08-21T13:12:43;38.50;51.40
79439;DHT22;68889;48.232;10.110;2023-08-21T13:15:09;38.50;52.50
79439;DHT22;68889;48.232;10.110;2023-08-21T13:17:36;38.50;52.10
79439;DHT22;68889;48.232;10.110;2023-08-21T13:20:02;38.60;51.70
79439;DHT22;68889;48.232;10.110;2023-08-21T13:22:27;38.80;50.10
79439;DHT22;68889;48.232;10.110;2023-08-21T13:24:53;39.00;51.30
79439;DHT22;68889;48.232;10.110;2023-08-21T13:27:18;39.20;50.00
79439;DHT22;68889;48.232;10.110;2023-08-21T13:29:46;39.00;49.80
79439;DHT22;68889;48.232;10.110;2023-08-21T13:32:11;38.90;46.80
79439;DHT22;68889;48.232;10.110;2023-08-21T13:34:37;38.80;48.70
79439;DHT22;68889;48.232;10.110;2023-08-21T13:37:03;38.70;52.00
79439;DHT22;68889;48.232;10.110;2023-08-21T13:39:29;38.70;51.70
79439;DHT22;68889;48.232;10.110;2023-08-21T13:41:56;38.90;49.40
79439;DHT22;68889;48.232;10.110;2023-08-21T13:44:21;38.90;51.60
79439;DHT22;68889;48.232;10.110;2023-08-21T13:46:47;39.10;50.10
79439;DHT22;68889;48.232;10.110;2023-08-21T13:49:13;39.30;49.90
79439;DHT22;68889;48.232;10.110;2023-08-21T13:51:38;39.50;50.10
79439;DHT22;68889;48.232;10.110;2023-08-21T13:54:04;39.50;50.30
79439;DHT22;68889;48.232;10.110;2023-08-21T13:56:29;39.60;51.30
79439;DHT22;68889;48.232;10.110;2023-08-21T13:58:55;39.50;50.20
79439;DHT22;68889;48.232;10.110;2023-08-21T14:01:20;39.40;48.10
79439;DHT22;68889;48.232;10.110;2023-08-21T14:03:46;39.50;50.50
79439;DHT22;68889;48.232;10.110;2023-08-21T14:06:12;39.60;49.80
79439;DHT22;68889;48.232;10.110;2023-08-21T14:08:38;39.80;46.10
79439;DHT22;68889;48.232;10.110;2023-08-21T14:11:03;39.80;49.70
79439;DHT22;68889;48.232;10.110;2023-08-21T14:13:29;39.90;48.40
79439;DHT22;68889;48.232;10.110;2023-08-21T14:15:55;40.10;49.60
79439;DHT22;68889;48.232;10.110;2023-08-21T14:18:20;40.10;47.20
79439;DHT22;68889;48.232;10.110;2023-08-21T14:20:46;39.90;45.40
79439;DHT22;68889;48.232;10.110;2023-08-21T14:23:11;39.70;46.80
79439;DHT22;68889;48.232;10.110;2023-08-21T14:25:37;39.60;47.20
79439;DHT22;68889;48.232;10.110;2023-08-21T14:28:03;39.60;47.90
79439;DHT22;68889;48.232;10.110;2023-08-21T14:30:29;39.60;48.00
79439;DHT22;68889;48.232;10.110;2023-08-21T14:32:55;39.60;47.10
79439;DHT22;68889;48.232;10.110;2023-08-21T14:35:20;39.60;48.60
79439;DHT22;68889;48.232;10.110;2023-08-21T14:37:46;39.70;49.50
79439;DHT22;68889;48.232;10.110;2023-08-21T14:40:12;39.80;48.40
79439;DHT22;68889;48.232;10.110;2023-08-21T14:42:38;39.90;49.20
79439;DHT22;68889;48.232;10.110;2023-08-21T14:45:04;39.80;47.20
79439;DHT22;68889;48.232;10.110;2023-08-21T14:47:30;39.90;48.10
79439;DHT22;68889;48.232;10.110;2023-08-21T14:49:56;39.90;48.50
79439;DHT22;68889;48.232;10.110;2023-08-21T14:52:23;39.90;49.50
79439;DHT22;68889;48.232;10.110;2023-08-21T14:54:50;39.90;46.60
79439;DHT22;68889;48.232;10.110;2023-08-21T14:57:16;39.80;49.30
79439;DHT22;68889;48.232;10.110;2023-08-21T14:59:42;39.90;46.10
79439;DHT22;68889;48.232;10.110;2023-08-21T15:02:07;39.90;46.70
79439;DHT22;68889;48.232;10.110;2023-08-21T15:04:33;39.80;48.00
79439;DHT22;68889;48.232;10.110;2023-08-21T15:06:59;39.70;48.50
79439;DHT22;68889;48.232;10.110;2023-08-21T15:09:24;39.80;47.20
79439;DHT22;68889;48.232;10.110;2023-08-21T15:11:50;39.70;45.90
79439;DHT22;68889;48.232;10.110;2023-08-21T15:14:15;39.60;47.20
79439;DHT22;68889;48.232;10.110;2023-08-21T15:16:41;39.70;47.90
79439;DHT22;68889;48.232;10.110;2023-08-21T15:19:07;39.90;48.30
79439;DHT22;68889;48.232;10.110;2023-08-21T15:21:32;40.20;48.30